Time;durP1;ratioP1;P1;durP2;ratioP2;P2;SDS_P1;SDS_P2;PMS_P1;PMS_P2;Temp;Humidity;BMP_temperature;BMP_pressure;BME280_temperature;BME280_humidity;BME280_pressure;Samples;Min_cycle;Max_cycle;Signal;HPM_P1;HPM_P2
2021/03/18 00:01:45;;;;;;;14.15;4.00;;;;;;;;;;5052432;28;20041;-64
2021/03/18 00:04:31;;;;;;;13.32;5.47;;;;;;;;;;5051854;28;20044;-65
2021/03/18 00:07:16;;;;;;;12.38;4.38;;;;;;;;;;5051209;28;20103;-67
2021/03/18 00:10:02;;;;;;;15.55;6.15;;;;;;;;;;5052043;28;20052;-64
2021/03/18 00:12:47;;;;;;;11.98;5.13;;;;;;;;;;5052055;28;20056;-65
2021/03/18 00:15:32;;;;;;;14.75;4.72;;;;;;;;;;5048244;28;20044;-64
2021/03/18 00:18:18;;;;;;;12.10;4.35;;;;;;;;;;5050023;28;20045;-63
2021/03/18 00:21:04;;;;;;;14.63;6.07;;;;;;;;;;5036446;28;20114;-65
2021/03/18 00:23:49;;;;;;;17.77;7.15;;;;;;;;;;5051930;28;20049;-65
2021/03/18 00:26:35;;;;;;;19.27;7.18;;;;;;;;;;5051992;28;20040;-67
2021/03/18 00:29:20;;;;;;;15.13;6.10;;;;;;;;;;5050908;28;20048;-64
2021/03/18 00:32:06;;;;;;;10.90;5.05;;;;;;;;;;5052102;28;20487;-64
2021/03/18 00:34:51;;;;;;;25.50;6.97;;;;;;;;;;5050573;28;20041;-65
2021/03/18 00:37:37;;;;;;;11.93;5.55;;;;;;;;;;5051965;28;20050;-65
2021/03/18 00:40:22;;;;;;;9.70;4.15;;;;;;;;;;5051093;28;20053;-64
2021/03/18 00:43:08;;;;;;;10.55;5.72;;;;;;;;;;5051777;28;20119;-65
2021/03/18 00:45:54;;;;;;;7.97;5.05;;;;;;;;;;5036581;28;20045;-64
2021/03/18 00:48:40;;;;;;;8.60;4.22;;;;;;;;;;5050608;28;20045;-65
2021/03/18 00:51:25;;;;;;;13.48;4.97;;;;;;;;;;5035817;28;20575;-65
2021/03/18 00:54:11;;;;;;;11.13;5.00;;;;;;;;;;5051762;28;20049;-64
2021/03/18 00:56:56;;;;;;;15.80;5.97;;;;;;;;;;5050891;28;20056;-65
2021/03/18 00:59:42;;;;;;;15.90;6.07;;;;;;;;;;5035502;28;20037;-66
2021/03/18 01:02:27;;;;;;;10.13;4.15;;;;;;;;;;5031599;28;20491;-64
2021/03/18 01:05:13;;;;;;;16.42;7.00;;;;;;;;;;5031382;28;20072;-64
2021/03/18 01:07:59;;;;;;;24.15;9.85;;;;;;;;;;5016530;28;20226;-65
2021/03/18 01:10:48;;;;;;;28.73;10.02;;;;;;;;;;5030788;28;20112;-65
2021/03/18 01:13:34;;;;;;;21.92;7.65;;;;;;;;;;5031510;28;20049;-64
2021/03/18 01:16:23;;;;;;;16.23;7.93;;;;;;;;;;5031212;28;20431;-64
2021/03/18 01:19:08;;;;;;;17.35;7.53;;;;;;;;;;5038567;28;20116;-65
2021/03/18 01:21:55;;;;;;;17.25;8.60;;;;;;;;;;5055200;28;20045;-65
2021/03/18 01:24:41;;;;;;;24.15;9.57;;;;;;;;;;5054928;28;20048;-65
2021/03/18 01:27:26;;;;;;;25.38;8.80;;;;;;;;;;5055033;28;20550;-64
2021/03/18 01:30:13;;;;;;;17.60;7.88;;;;;;;;;;5054132;28;20057;-64
2021/03/18 01:32:58;;;;;;;23.67;9.00;;;;;;;;;;5054931;28;20163;-65
2021/03/18 01:35:43;;;;;;;29.42;10.10;;;;;;;;;;5054792;28;20132;-65
2021/03/18 01:38:29;;;;;;;15.93;8.43;;;;;;;;;;5054738;28;20422;-64
2021/03/18 01:41:15;;;;;;;22.90;9.27;;;;;;;;;;5054213;28;20139;-65
2021/03/18 01:44:03;;;;;;;16.17;7.03;;;;;;;;;;5053383;28;20065;-67
2021/03/18 01:46:48;;;;;;;19.88;9.48;;;;;;;;;;5039783;28;20037;-64
2021/03/18 01:49:34;;;;;;;25.13;9.85;;;;;;;;;;5054767;28;20049;-64
2021/03/18 01:52:19;;;;;;;23.50;7.80;;;;;;;;;;5054764;28;20060;-65
2021/03/18 01:55:06;;;;;;;15.40;7.55;;;;;;;;;;5054302;28;20053;-65
2021/03/18 01:57:51;;;;;;;18.58;9.13;;;;;;;;;;5054650;28;20045;-64
2021/03/18 02:00:37;;;;;;;23.25;9.48;;;;;;;;;;5053579;28;20041;-64
2021/03/18 02:03:22;;;;;;;22.95;10.68;;;;;;;;;;5053721;28;20045;-64
2021/03/18 02:06:07;;;;;;;27.00;12.27;;;;;;;;;;5048280;28;20041;-65
2021/03/18 02:08:53;;;;;;;16.85;7.82;;;;;;;;;;5051304;28;20116;-67
2021/03/18 02:11:38;;;;;;;21.35;9.38;;;;;;;;;;5054235;28;20511;-64
2021/03/18 02:14:23;;;;;;;18.65;9.50;;;;;;;;;;5053320;28;20045;-65
2021/03/18 02:17:09;;;;;;;23.00;8.65;;;;;;;;;;5054007;28;20049;-66
2021/03/18 02:20:17;;;;;;;16.55;8.80;;;;;;;;;;5054142;28;20053;-64
2021/03/18 02:23:21;;;;;;;14.45;7.97;;;;;;;;;;5053154;28;20049;-64
2021/03/18 02:26:25;;;;;;;16.38;8.15;;;;;;;;;;5053726;28;20119;-65
2021/03/18 02:29:24;;;;;;;14.15;7.20;;;;;;;;;;5053894;28;20048;-64
2021/03/18 02:32:28;;;;;;;16.40;8.25;;;;;;;;;;5052544;28;20127;-66
2021/03/18 02:35:25;;;;;;;18.90;8.38;;;;;;;;;;5052672;28;20044;-65
2021/03/18 02:38:11;;;;;;;17.85;6.97;;;;;;;;;;5053948;28;20044;-65
2021/03/18 02:41:02;;;;;;;22.85;7.25;;;;;;;;;;5052798;28;20076;-64
2021/03/18 02:43:54;;;;;;;17.90;7.45;;;;;;;;;;5053735;28;20461;-64
2021/03/18 02:46:42;;;;;;;20.02;7.57;;;;;;;;;;5052681;28;20045;-64
2021/03/18 02:49:28;;;;;;;19.10;8.98;;;;;;;;;;5038553;28;20037;-66
2021/03/18 02:52:18;;;;;;;13.55;7.22;;;;;;;;;;5052665;28;20048;-66
2021/03/18 02:55:03;;;;;;;18.17;6.95;;;;;;;;;;5052249;28;20072;-64
2021/03/18 02:57:48;;;;;;;16.13;6.13;;;;;;;;;;5053351;28;20438;-63
2021/03/18 03:00:34;;;;;;;12.95;6.40;;;;;;;;;;5052108;28;20430;-65
2021/03/18 03:03:19;;;;;;;17.30;7.13;;;;;;;;;;5050895;28;20443;-64
2021/03/18 03:06:05;;;;;;;18.40;6.45;;;;;;;;;;5051583;28;20124;-64
2021/03/18 03:08:50;;;;;;;16.45;6.18;;;;;;;;;;5053205;28;20143;-65
2021/03/18 03:11:36;;;;;;;22.92;8.77;;;;;;;;;;5051762;28;20047;-64
2021/03/18 03:14:21;;;;;;;16.92;7.88;;;;;;;;;;5050452;28;20051;-64
2021/03/18 03:17:06;;;;;;;18.38;7.18;;;;;;;;;;5051927;28;20128;-65
2021/03/18 03:19:52;;;;;;;24.30;11.48;;;;;;;;;;5052009;28;20075;-64
2021/03/18 03:22:37;;;;;;;19.17;7.82;;;;;;;;;;5051084;28;20491;-65
2021/03/18 03:25:22;;;;;;;20.38;9.52;;;;;;;;;;5051731;28;20041;-63
2021/03/18 03:28:10;;;;;;;17.42;7.88;;;;;;;;;;5051292;28;20037;-64
2021/03/18 03:30:56;;;;;;;19.17;9.73;;;;;;;;;;5052639;28;20410;-64
2021/03/18 03:33:41;;;;;;;21.58;9.07;;;;;;;;;;5051998;28;20049;-64
2021/03/18 03:36:27;;;;;;;19.75;8.27;;;;;;;;;;5051666;28;20051;-66
2021/03/18 03:39:12;;;;;;;16.45;8.02;;;;;;;;;;5052550;28;20045;-64
2021/03/18 03:41:57;;;;;;;18.70;7.13;;;;;;;;;;5052826;28;20056;-64
2021/03/18 03:44:43;;;;;;;26.10;10.52;;;;;;;;;;5052267;28;20421;-65
2021/03/18 03:47:28;;;;;;;17.10;8.90;;;;;;;;;;5051357;28;20055;-65
2021/03/18 03:50:17;;;;;;;25.08;10.32;;;;;;;;;;5051796;28;20047;-65
2021/03/18 03:53:05;;;;;;;28.08;11.80;;;;;;;;;;5052590;28;20414;-65
2021/03/18 03:55:56;;;;;;;21.30;11.23;;;;;;;;;;5052036;28;20127;-65
2021/03/18 03:58:46;;;;;;;19.70;10.85;;;;;;;;;;5051271;28;20136;-65
2021/03/18 04:01:41;;;;;;;27.63;12.13;;;;;;;;;;5050147;28;20068;-65
2021/03/18 04:04:27;;;;;;;22.63;12.13;;;;;;;;;;5051946;28;20067;-65
2021/03/18 04:07:20;;;;;;;23.10;12.95;;;;;;;;;;5051032;28;20052;-65
2021/03/18 04:10:05;;;;;;;23.25;12.13;;;;;;;;;;5052147;28;20572;-65
2021/03/18 04:12:50;;;;;;;23.63;11.82;;;;;;;;;;5052115;28;20041;-65
2021/03/18 04:15:35;;;;;;;24.38;12.55;;;;;;;;;;5050024;28;20041;-65
2021/03/18 04:18:20;;;;;;;23.60;12.95;;;;;;;;;;5052048;28;20045;-65
2021/03/18 04:21:06;;;;;;;20.60;11.52;;;;;;;;;;5050995;28;20507;-64
2021/03/18 04:23:52;;;;;;;23.58;12.32;;;;;;;;;;5051245;28;20053;-65
2021/03/18 04:26:38;;;;;;;22.63;12.88;;;;;;;;;;5050126;28;20048;-65
2021/03/18 04:29:23;;;;;;;23.35;11.95;;;;;;;;;;5050883;28;20509;-65
2021/03/18 04:32:08;;;;;;;24.45;12.40;;;;;;;;;;5051051;28;20080;-65
2021/03/18 04:34:55;;;;;;;22.95;13.85;;;;;;;;;;5050765;28;20045;-65
2021/03/18 04:37:40;;;;;;;31.38;15.57;;;;;;;;;;5049863;28;20056;-65
2021/03/18 04:40:25;;;;;;;24.45;13.23;;;;;;;;;;5051324;28;20053;-65
2021/03/18 04:43:10;;;;;;;32.42;15.13;;;;;;;;;;5051766;28;20393;-65
2021/03/18 04:45:56;;;;;;;22.00;10.68;;;;;;;;;;5049583;28;20051;-65
2021/03/18 04:48:41;;;;;;;32.45;14.50;;;;;;;;;;5036344;28;20059;-65
2021/03/18 04:51:26;;;;;;;26.13;11.38;;;;;;;;;;5051766;28;20044;-64
2021/03/18 04:54:12;;;;;;;20.80;12.18;;;;;;;;;;5052489;28;20427;-65
2021/03/18 04:56:57;;;;;;;33.28;14.18;;;;;;;;;;5054744;28;20045;-65
2021/03/18 04:59:43;;;;;;;26.85;14.13;;;;;;;;;;5054671;28;20135;-65
2021/03/18 05:02:28;;;;;;;20.90;12.23;;;;;;;;;;5055851;28;20526;-65
2021/03/18 05:05:15;;;;;;;30.23;12.98;;;;;;;;;;5054537;28;20409;-65
2021/03/18 05:08:00;;;;;;;30.85;12.68;;;;;;;;;;5054431;28;20045;-65
2021/03/18 05:10:46;;;;;;;26.13;12.35;;;;;;;;;;5055497;28;20045;-66
2021/03/18 05:13:31;;;;;;;28.15;13.02;;;;;;;;;;5054693;28;20048;-65
2021/03/18 05:16:16;;;;;;;22.13;12.65;;;;;;;;;;5053875;28;20487;-66
2021/03/18 05:19:01;;;;;;;25.70;12.27;;;;;;;;;;5054972;28;20151;-66
2021/03/18 05:21:47;;;;;;;24.33;11.75;;;;;;;;;;5054377;28;20119;-66
2021/03/18 05:24:32;;;;;;;25.00;12.88;;;;;;;;;;5054129;28;20483;-66
2021/03/18 05:27:18;;;;;;;22.33;13.52;;;;;;;;;;5053029;28;21912;-66
2021/03/18 05:30:04;;;;;;;21.48;11.00;;;;;;;;;;5055073;28;20049;-66
2021/03/18 05:32:49;;;;;;;25.75;11.95;;;;;;;;;;5055088;28;20119;-65
2021/03/18 05:35:35;;;;;;;19.27;11.85;;;;;;;;;;5039840;28;20045;-66
2021/03/18 05:38:20;;;;;;;22.77;12.82;;;;;;;;;;5055040;28;20057;-66
2021/03/18 05:41:05;;;;;;;22.35;11.13;;;;;;;;;;5055137;28;20055;-65
2021/03/18 05:43:51;;;;;;;28.00;13.05;;;;;;;;;;5055158;28;20049;-66
2021/03/18 05:46:37;;;;;;;27.45;14.32;;;;;;;;;;5054207;28;20040;-65
2021/03/18 05:49:23;;;;;;;28.17;14.65;;;;;;;;;;5055504;28;20514;-64
2021/03/18 05:52:08;;;;;;;27.77;13.68;;;;;;;;;;5054646;28;20037;-64
2021/03/18 05:54:55;;;;;;;29.02;13.27;;;;;;;;;;5054541;28;20073;-64
2021/03/18 05:57:41;;;;;;;21.30;11.90;;;;;;;;;;5053731;28;20056;-64
2021/03/18 06:00:27;;;;;;;22.70;12.73;;;;;;;;;;5054364;28;20040;-64
2021/03/18 06:03:12;;;;;;;29.23;12.50;;;;;;;;;;5054986;28;20418;-65
2021/03/18 06:05:57;;;;;;;19.08;12.32;;;;;;;;;;5053924;28;20124;-65
2021/03/18 06:08:44;;;;;;;34.65;14.20;;;;;;;;;;5042468;28;20048;-65
2021/03/18 06:11:29;;;;;;;23.80;11.77;;;;;;;;;;5042360;28;20041;-65
2021/03/18 06:14:14;;;;;;;21.58;12.02;;;;;;;;;;5052637;28;20095;-64
2021/03/18 06:16:59;;;;;;;26.88;13.40;;;;;;;;;;5051791;28;20052;-65
2021/03/18 06:19:45;;;;;;;22.70;12.18;;;;;;;;;;5039667;28;20053;-65
2021/03/18 06:22:34;;;;;;;22.48;12.48;;;;;;;;;;5035470;28;20053;-65
2021/03/18 06:25:25;;;;;;;17.88;10.27;;;;;;;;;;5034033;28;20057;-65
2021/03/18 06:28:40;;;;;;;23.45;13.73;;;;;;;;;;5039150;28;20037;-65
2021/03/18 06:31:25;;;;;;;26.30;11.68;;;;;;;;;;5048372;28;20499;-64
2021/03/18 06:34:11;;;;;;;19.98;11.85;;;;;;;;;;5052772;28;20053;-64
2021/03/18 06:36:56;;;;;;;27.60;12.65;;;;;;;;;;5053910;28;20487;-64
2021/03/18 06:39:41;;;;;;;21.30;11.77;;;;;;;;;;5053101;28;20053;-64
2021/03/18 06:42:27;;;;;;;21.75;11.30;;;;;;;;;;5053878;28;20041;-64
2021/03/18 06:45:16;;;;;;;16.30;8.68;;;;;;;;;;5053708;28;20497;-64
2021/03/18 06:48:08;;;;;;;21.88;11.27;;;;;;;;;;5053570;28;20052;-64
2021/03/18 06:50:53;;;;;;;18.95;9.55;;;;;;;;;;5026740;28;20483;-64
2021/03/18 06:53:38;;;;;;;24.40;10.73;;;;;;;;;;5053818;28;20067;-64
2021/03/18 06:56:25;;;;;;;24.30;11.57;;;;;;;;;;5053267;28;20487;-64
2021/03/18 06:59:23;;;;;;;23.98;11.65;;;;;;;;;;5052507;28;20132;-64
2021/03/18 07:02:08;;;;;;;15.35;10.05;;;;;;;;;;5051495;28;20056;-64
2021/03/18 07:04:57;;;;;;;21.27;11.57;;;;;;;;;;5053221;28;20052;-64
2021/03/18 07:07:42;;;;;;;23.67;11.50;;;;;;;;;;5053217;28;20056;-64
2021/03/18 07:10:36;;;;;;;14.85;8.52;;;;;;;;;;5052646;28;20049;-64
2021/03/18 07:13:27;;;;;;;19.40;11.32;;;;;;;;;;5053217;28;20072;-64
2021/03/18 07:16:13;;;;;;;24.35;13.55;;;;;;;;;;5052691;28;20409;-64
2021/03/18 07:18:58;;;;;;;25.27;14.15;;;;;;;;;;5053249;28;20075;-64
2021/03/18 07:21:44;;;;;;;21.30;11.85;;;;;;;;;;5052871;28;20083;-64
2021/03/18 07:24:32;;;;;;;29.48;13.38;;;;;;;;;;5052837;28;20491;-64
2021/03/18 07:27:17;;;;;;;21.10;13.48;;;;;;;;;;5053071;28;20053;-64
2021/03/18 07:30:03;;;;;;;24.85;11.15;;;;;;;;;;5048271;28;20041;-64
2021/03/18 07:32:48;;;;;;;26.00;12.75;;;;;;;;;;5042874;28;20041;-64
2021/03/18 07:35:34;;;;;;;22.88;12.50;;;;;;;;;;5043519;28;20047;-64
2021/03/18 07:38:19;;;;;;;18.58;10.38;;;;;;;;;;5043509;28;20068;-64
2021/03/18 07:41:05;;;;;;;22.38;10.05;;;;;;;;;;5047087;28;20491;-64
2021/03/18 07:43:50;;;;;;;29.08;10.43;;;;;;;;;;5052708;28;20515;-64
2021/03/18 07:46:36;;;;;;;21.30;9.23;;;;;;;;;;5052581;28;20053;-64
2021/03/18 07:49:23;;;;;;;18.95;8.90;;;;;;;;;;5052246;28;20053;-64
2021/03/18 07:52:08;;;;;;;16.25;10.48;;;;;;;;;;5049914;28;20472;-64
2021/03/18 07:54:53;;;;;;;22.05;11.88;;;;;;;;;;5052271;28;20049;-64
2021/03/18 07:57:52;;;;;;;19.40;9.05;;;;;;;;;;5051322;28;20095;-64
2021/03/18 08:00:37;;;;;;;24.95;8.98;;;;;;;;;;5052440;28;20041;-64
2021/03/18 08:03:23;;;;;;;17.85;7.72;;;;;;;;;;5051211;28;20040;-64
2021/03/18 08:06:08;;;;;;;15.07;7.78;;;;;;;;;;5052223;28;20040;-64
2021/03/18 08:08:53;;;;;;;25.20;8.05;;;;;;;;;;5051132;28;20045;-64
2021/03/18 08:11:38;;;;;;;15.43;7.05;;;;;;;;;;5051014;28;20065;-64
2021/03/18 08:14:24;;;;;;;19.83;8.52;;;;;;;;;;5051877;28;20048;-64
2021/03/18 08:17:27;;;;;;;13.57;6.32;;;;;;;;;;5051126;28;20049;-64
2021/03/18 08:20:13;;;;;;;17.83;6.20;;;;;;;;;;5052041;28;20045;-65
2021/03/18 08:22:58;;;;;;;16.05;6.50;;;;;;;;;;5051040;28;20403;-64
2021/03/18 08:25:43;;;;;;;12.73;5.70;;;;;;;;;;5049494;28;20063;-66
2021/03/18 08:28:36;;;;;;;18.48;6.97;;;;;;;;;;5051171;28;20045;-64
2021/03/18 08:31:23;;;;;;;15.40;6.05;;;;;;;;;;5049545;28;20491;-64
2021/03/18 08:34:08;;;;;;;20.33;6.55;;;;;;;;;;5050950;28;20041;-64
2021/03/18 08:36:54;;;;;;;17.42;7.03;;;;;;;;;;5051755;28;20041;-64
2021/03/18 08:39:41;;;;;;;17.30;6.70;;;;;;;;;;5051824;28;20072;-64
2021/03/18 08:42:30;;;;;;;16.48;6.40;;;;;;;;;;5050033;28;20049;-65
2021/03/18 08:45:21;;;;;;;17.15;6.28;;;;;;;;;;5051366;28;20045;-64
2021/03/18 08:48:10;;;;;;;16.70;6.65;;;;;;;;;;5050763;28;20052;-64
2021/03/18 08:50:57;;;;;;;23.48;6.93;;;;;;;;;;5049967;28;20041;-66
2021/03/18 08:53:45;;;;;;;17.63;5.78;;;;;;;;;;5046191;28;20044;-65
2021/03/18 08:56:40;;;;;;;18.00;5.93;;;;;;;;;;5046076;28;20048;-65
2021/03/18 08:59:26;;;;;;;17.98;5.18;;;;;;;;;;5030792;28;20115;-65
2021/03/18 09:02:13;;;;;;;20.80;5.80;;;;;;;;;;5046678;28;20040;-63
2021/03/18 09:04:58;;;;;;;16.00;5.05;;;;;;;;;;5041962;28;20052;-65
2021/03/18 09:07:44;;;;;;;22.17;5.55;;;;;;;;;;5048011;28;20033;-63
2021/03/18 09:10:30;;;;;;;17.40;5.28;;;;;;;;;;5042081;28;20049;-66
2021/03/18 09:13:16;;;;;;;19.92;5.22;;;;;;;;;;5041848;28;20511;-68
2021/03/18 09:16:01;;;;;;;18.23;6.32;;;;;;;;;;5043710;28;20045;-63
2021/03/18 09:18:47;;;;;;;22.00;5.65;;;;;;;;;;5042107;28;20494;-64
2021/03/18 09:21:41;;;;;;;18.20;5.18;;;;;;;;;;5030220;28;20049;-63
2021/03/18 09:24:36;;;;;;;17.20;4.47;;;;;;;;;;5050315;28;20491;-63
2021/03/18 09:27:21;;;;;;;18.80;4.82;;;;;;;;;;5051492;28;20052;-63
2021/03/18 09:30:16;;;;;;;19.40;4.90;;;;;;;;;;5050416;28;20052;-65
2021/03/18 09:33:02;;;;;;;25.13;6.60;;;;;;;;;;5050001;28;20128;-63
2021/03/18 09:35:48;;;;;;;19.67;5.28;;;;;;;;;;5050787;28;20037;-63
2021/03/18 09:38:33;;;;;;;22.58;6.80;;;;;;;;;;5051247;28;20049;-62
2021/03/18 09:41:23;;;;;;;19.65;5.10;;;;;;;;;;5037950;28;20419;-64
2021/03/18 09:44:09;;;;;;;16.05;4.03;;;;;;;;;;5055066;28;20052;-63
2021/03/18 09:46:55;;;;;;;18.00;4.47;;;;;;;;;;5054874;28;20047;-67
2021/03/18 09:49:41;;;;;;;18.85;4.63;;;;;;;;;;5054802;28;20142;-66
2021/03/18 09:52:27;;;;;;;14.00;4.72;;;;;;;;;;5053880;28;20052;-63
2021/03/18 09:55:14;;;;;;;13.10;3.70;;;;;;;;;;5054540;28;20041;-65
2021/03/18 09:58:07;;;;;;;15.60;4.65;;;;;;;;;;5049084;28;20045;-63
2021/03/18 10:00:53;;;;;;;16.02;5.07;;;;;;;;;;5054807;28;20044;-63
2021/03/18 10:03:38;;;;;;;17.20;4.07;;;;;;;;;;5034888;28;20050;-63
2021/03/18 10:06:27;;;;;;;24.00;4.65;;;;;;;;;;5019321;28;20215;-63
2021/03/18 10:09:19;;;;;;;22.98;5.82;;;;;;;;;;5034343;28;20041;-63
2021/03/18 10:12:05;;;;;;;19.20;4.65;;;;;;;;;;5040635;28;20037;-63
2021/03/18 10:15:06;;;;;;;21.40;5.50;;;;;;;;;;5044869;28;20102;-64
2021/03/18 10:17:52;;;;;;;20.77;5.40;;;;;;;;;;5034244;28;20045;-64
2021/03/18 10:20:38;;;;;;;14.88;4.22;;;;;;;;;;5019603;28;20496;-64
2021/03/18 10:23:23;;;;;;;19.20;5.22;;;;;;;;;;5045415;28;20124;-63
2021/03/18 10:26:08;;;;;;;27.42;5.35;;;;;;;;;;5053054;28;20053;-64
2021/03/18 10:28:57;;;;;;;27.23;6.07;;;;;;;;;;5054039;28;20045;-64
2021/03/18 10:31:42;;;;;;;19.80;5.15;;;;;;;;;;5053281;28;20466;-64
2021/03/18 10:34:28;;;;;;;19.02;5.05;;;;;;;;;;5052922;28;20045;-63
2021/03/18 10:37:46;;;;;;;23.83;4.82;;;;;;;;;;5053942;28;20052;-64
2021/03/18 10:40:41;;;;;;;24.95;5.38;;;;;;;;;;5020478;28;20049;-64
2021/03/18 10:43:26;;;;;;;14.40;4.10;;;;;;;;;;5050149;28;20049;-65
2021/03/18 10:46:12;;;;;;;20.13;4.38;;;;;;;;;;5052010;28;20052;-64
2021/03/18 10:48:58;;;;;;;20.50;5.10;;;;;;;;;;5053154;28;20045;-64
2021/03/18 10:51:44;;;;;;;17.90;4.57;;;;;;;;;;5052545;28;20068;-64
2021/03/18 10:54:29;;;;;;;15.95;4.38;;;;;;;;;;5052175;28;20041;-65
2021/03/18 10:57:14;;;;;;;15.40;5.00;;;;;;;;;;5052096;28;20041;-66
2021/03/18 11:00:00;;;;;;;16.15;5.13;;;;;;;;;;5052219;28;20044;-64
2021/03/18 11:02:46;;;;;;;18.83;4.80;;;;;;;;;;5047348;28;20102;-66
2021/03/18 11:05:32;;;;;;;18.40;5.80;;;;;;;;;;5050750;28;20053;-64
2021/03/18 11:08:28;;;;;;;20.42;5.90;;;;;;;;;;5052153;28;20049;-64
2021/03/18 11:11:20;;;;;;;14.02;3.20;;;;;;;;;;5037813;28;20069;-65
2021/03/18 11:14:09;;;;;;;10.23;2.78;;;;;;;;;;5052123;28;20041;-64
2021/03/18 11:17:04;;;;;;;8.40;1.75;;;;;;;;;;5037786;28;20049;-64
2021/03/18 11:19:49;;;;;;;8.10;1.60;;;;;;;;;;5052695;28;20053;-65
2021/03/18 11:22:34;;;;;;;9.60;2.25;;;;;;;;;;5052795;28;20041;-64
2021/03/18 11:25:20;;;;;;;16.17;2.95;;;;;;;;;;5041817;28;20044;-68
2021/03/18 11:28:05;;;;;;;10.90;3.08;;;;;;;;;;5052361;28;20040;-66
2021/03/18 11:30:51;;;;;;;9.07;2.22;;;;;;;;;;5052444;28;20041;-69
2021/03/18 11:33:36;;;;;;;12.77;1.98;;;;;;;;;;5051544;28;20044;-67
2021/03/18 11:36:21;;;;;;;9.32;1.67;;;;;;;;;;5052101;28;20049;-67
2021/03/18 11:39:07;;;;;;;8.43;1.75;;;;;;;;;;5035109;28;20049;-66
2021/03/18 11:41:53;;;;;;;6.93;1.23;;;;;;;;;;5050471;28;20037;-67
2021/03/18 11:44:38;;;;;;;23.88;2.20;;;;;;;;;;5051037;28;20495;-67
2021/03/18 11:47:23;;;;;;;8.90;2.90;;;;;;;;;;5052065;28;20053;-67
2021/03/18 11:50:10;;;;;;;11.10;1.70;;;;;;;;;;5083386;23;20049;-64
2021/03/18 11:52:55;;;;;;;10.18;2.28;;;;;;;;;;5052211;28;20045;-65
2021/03/18 11:55:40;;;;;;;12.20;1.85;;;;;;;;;;5040479;28;20344;-65
2021/03/18 11:58:26;;;;;;;8.50;1.48;;;;;;;;;;5051354;28;20041;-65
2021/03/18 12:01:11;;;;;;;8.02;2.03;;;;;;;;;;5028599;28;21576;-65
2021/03/18 12:03:57;;;;;;;7.88;1.45;;;;;;;;;;5021838;28;20088;-64
2021/03/18 12:06:42;;;;;;;13.10;2.20;;;;;;;;;;5027358;28;20042;-65
2021/03/18 12:09:27;;;;;;;6.00;1.30;;;;;;;;;;5028385;28;20045;-64
2021/03/18 12:12:13;;;;;;;7.28;2.58;;;;;;;;;;5026155;28;20042;-64
2021/03/18 12:14:58;;;;;;;15.13;4.03;;;;;;;;;;5022548;28;20550;-65
2021/03/18 12:17:44;;;;;;;13.07;2.08;;;;;;;;;;5029676;28;20045;-63
2021/03/18 12:20:29;;;;;;;14.65;2.83;;;;;;;;;;5028517;28;20049;-64
2021/03/18 12:23:14;;;;;;;14.95;2.75;;;;;;;;;;5026196;28;20045;-65
2021/03/18 12:26:00;;;;;;;13.45;2.78;;;;;;;;;;5031326;28;20192;-63
2021/03/18 12:28:45;;;;;;;10.93;2.40;;;;;;;;;;5031323;28;20487;-64
2021/03/18 12:31:31;;;;;;;12.40;2.33;;;;;;;;;;5024211;28;20045;-65
2021/03/18 12:34:16;;;;;;;10.63;1.70;;;;;;;;;;5024178;28;20507;-64
2021/03/18 12:37:01;;;;;;;11.45;1.88;;;;;;;;;;5026251;28;20101;-63
2021/03/18 12:39:47;;;;;;;14.15;2.63;;;;;;;;;;5028190;28;20041;-64
2021/03/18 12:42:32;;;;;;;10.73;1.85;;;;;;;;;;5023475;28;20117;-64
2021/03/18 12:45:18;;;;;;;13.48;3.28;;;;;;;;;;5027812;28;20045;-63
2021/03/18 12:48:04;;;;;;;13.52;2.45;;;;;;;;;;5028197;28;20495;-64
2021/03/18 12:50:49;;;;;;;10.45;2.63;;;;;;;;;;5029010;28;20080;-65
2021/03/18 12:53:34;;;;;;;5.70;1.55;;;;;;;;;;5029839;28;20053;-63
2021/03/18 12:56:20;;;;;;;7.53;2.03;;;;;;;;;;5029776;28;20041;-64
2021/03/18 12:59:05;;;;;;;7.20;1.65;;;;;;;;;;5030869;28;20176;-64
2021/03/18 13:01:51;;;;;;;8.07;2.63;;;;;;;;;;5019706;28;20050;-65
2021/03/18 13:04:37;;;;;;;7.90;2.72;;;;;;;;;;5026894;28;20053;-65
2021/03/18 13:07:22;;;;;;;7.68;1.92;;;;;;;;;;5010733;28;20046;-65
2021/03/18 13:10:08;;;;;;;16.10;2.53;;;;;;;;;;5021930;28;20049;-65
2021/03/18 13:12:53;;;;;;;10.43;2.30;;;;;;;;;;5026740;28;20073;-64
2021/03/18 13:15:38;;;;;;;14.27;3.08;;;;;;;;;;5033044;28;20054;-63
2021/03/18 13:18:24;;;;;;;13.10;2.53;;;;;;;;;;5035026;28;20499;-63
2021/03/18 13:21:09;;;;;;;18.55;3.40;;;;;;;;;;5019739;28;20075;-63
2021/03/18 13:23:55;;;;;;;10.50;2.53;;;;;;;;;;5035102;28;20492;-63
2021/03/18 13:26:40;;;;;;;8.88;2.35;;;;;;;;;;5034117;28;20111;-64
2021/03/18 13:29:25;;;;;;;13.68;2.67;;;;;;;;;;5034950;28;20062;-63
2021/03/18 13:32:11;;;;;;;7.38;1.55;;;;;;;;;;5035067;28;20446;-64
2021/03/18 13:34:56;;;;;;;10.90;2.17;;;;;;;;;;5034421;28;20042;-64
2021/03/18 13:37:41;;;;;;;11.48;2.55;;;;;;;;;;5034304;28;20049;-64
2021/03/18 13:40:31;;;;;;;14.13;2.78;;;;;;;;;;5033841;28;20132;-64
2021/03/18 13:43:17;;;;;;;12.82;2.63;;;;;;;;;;5020289;28;20041;-64
2021/03/18 13:46:04;;;;;;;12.43;2.45;;;;;;;;;;5032721;28;20053;-63
2021/03/18 13:48:52;;;;;;;13.57;2.88;;;;;;;;;;5034187;28;20490;-64
2021/03/18 13:51:37;;;;;;;9.77;2.17;;;;;;;;;;5034628;28;20045;-64
2021/03/18 13:54:25;;;;;;;10.15;2.20;;;;;;;;;;5034355;28;20045;-63
2021/03/18 13:57:11;;;;;;;13.68;2.58;;;;;;;;;;5021303;28;20072;-64
2021/03/18 13:59:56;;;;;;;9.48;1.95;;;;;;;;;;5034223;28;20046;-64
2021/03/18 14:02:42;;;;;;;8.88;2.60;;;;;;;;;;5020944;28;20136;-64
2021/03/18 14:05:29;;;;;;;17.58;3.05;;;;;;;;;;5034039;28;20057;-64
2021/03/18 14:08:14;;;;;;;13.45;2.70;;;;;;;;;;5033296;28;20574;-63
2021/03/18 14:11:00;;;;;;;16.50;3.22;;;;;;;;;;5034073;28;20041;-64
2021/03/18 14:13:45;;;;;;;14.27;3.67;;;;;;;;;;5034226;28;20041;-65
2021/03/18 14:16:30;;;;;;;10.95;2.92;;;;;;;;;;5033863;28;20045;-65
2021/03/18 14:19:15;;;;;;;13.77;3.05;;;;;;;;;;5033586;28;20041;-65
2021/03/18 14:22:01;;;;;;;11.38;2.17;;;;;;;;;;5033696;28;20053;-65
2021/03/18 14:24:46;;;;;;;12.95;2.55;;;;;;;;;;5033860;28;20045;-65
2021/03/18 14:27:31;;;;;;;12.35;3.05;;;;;;;;;;5032351;28;20054;-65
2021/03/18 14:30:17;;;;;;;14.63;2.95;;;;;;;;;;5033873;28;20045;-65
2021/03/18 14:33:05;;;;;;;13.68;2.40;;;;;;;;;;5033830;28;20045;-65
2021/03/18 14:35:50;;;;;;;19.00;3.25;;;;;;;;;;5033909;28;20045;-65
2021/03/18 14:38:35;;;;;;;17.55;3.45;;;;;;;;;;5032829;28;20503;-65
2021/03/18 14:41:21;;;;;;;17.20;3.28;;;;;;;;;;5019371;28;20056;-65
2021/03/18 14:44:06;;;;;;;17.35;3.33;;;;;;;;;;5033621;28;20045;-65
2021/03/18 14:46:51;;;;;;;15.80;3.20;;;;;;;;;;5033700;28;20045;-65
2021/03/18 14:49:37;;;;;;;18.25;3.58;;;;;;;;;;5032683;28;20053;-65
2021/03/18 14:52:22;;;;;;;18.08;3.25;;;;;;;;;;5033615;28;20402;-65
2021/03/18 14:55:08;;;;;;;13.63;3.15;;;;;;;;;;5017980;28;20050;-65
2021/03/18 14:57:52;;;;;;;13.73;2.55;;;;;;;;;;5033697;28;20049;-65
2021/03/18 15:00:38;;;;;;;8.48;1.75;;;;;;;;;;5032233;28;20049;-65
2021/03/18 15:03:23;;;;;;;10.18;2.00;;;;;;;;;;5033404;28;20073;-65
2021/03/18 15:06:09;;;;;;;8.00;2.20;;;;;;;;;;5033081;28;20053;-65
2021/03/18 15:08:54;;;;;;;9.93;2.95;;;;;;;;;;5032321;28;20045;-65
2021/03/18 15:11:40;;;;;;;8.25;1.45;;;;;;;;;;5033300;28;20049;-65
2021/03/18 15:14:26;;;;;;;6.55;1.67;;;;;;;;;;5032706;28;20034;-64
2021/03/18 15:17:11;;;;;;;7.93;1.20;;;;;;;;;;5032908;28;20480;-65
2021/03/18 15:19:57;;;;;;;6.90;1.55;;;;;;;;;;5032090;28;20065;-65
2021/03/18 15:22:43;;;;;;;7.88;1.52;;;;;;;;;;5032942;28;20128;-63
2021/03/18 15:25:28;;;;;;;5.53;1.08;;;;;;;;;;5032517;28;20128;-64
2021/03/18 15:28:13;;;;;;;7.20;1.85;;;;;;;;;;5016957;28;20034;-63
2021/03/18 15:30:58;;;;;;;8.00;1.60;;;;;;;;;;5031029;28;20064;-63
2021/03/18 15:33:43;;;;;;;5.28;1.67;;;;;;;;;;5031424;28;20521;-63
2021/03/18 15:36:28;;;;;;;5.88;1.20;;;;;;;;;;5029357;28;20053;-63
2021/03/18 15:39:14;;;;;;;7.68;1.27;;;;;;;;;;5031810;28;20499;-64
2021/03/18 15:41:59;;;;;;;4.57;1.10;;;;;;;;;;5031493;28;20053;-64
2021/03/18 15:44:45;;;;;;;6.30;1.17;;;;;;;;;;5032271;28;20499;-64
2021/03/18 15:47:30;;;;;;;5.80;1.20;;;;;;;;;;5031425;28;20095;-63
2021/03/18 15:50:18;;;;;;;5.85;1.30;;;;;;;;;;5031474;28;20091;-63
2021/03/18 15:53:04;;;;;;;5.10;1.20;;;;;;;;;;5032498;28;20056;-63
2021/03/18 15:55:50;;;;;;;4.78;0.90;;;;;;;;;;5032152;28;20045;-64
2021/03/18 15:58:35;;;;;;;8.25;1.23;;;;;;;;;;5031791;28;20618;-64
2021/03/18 16:01:21;;;;;;;3.70;0.70;;;;;;;;;;5024488;28;20059;-64
2021/03/18 16:04:06;;;;;;;5.07;0.60;;;;;;;;;;5032187;28;20158;-64
2021/03/18 16:06:52;;;;;;;6.32;0.88;;;;;;;;;;5032052;28;20053;-64
2021/03/18 16:09:37;;;;;;;3.55;0.70;;;;;;;;;;5031824;28;20199;-64
2021/03/18 16:12:23;;;;;;;3.67;1.30;;;;;;;;;;5030603;28;20063;-65
2021/03/18 16:15:08;;;;;;;3.72;1.20;;;;;;;;;;5031883;28;20037;-63
2021/03/18 16:17:53;;;;;;;4.43;1.10;;;;;;;;;;5032368;28;20068;-64
2021/03/18 16:20:39;;;;;;;3.42;0.63;;;;;;;;;;5031098;28;20053;-64
2021/03/18 16:23:24;;;;;;;1.60;0.65;;;;;;;;;;5032235;28;20135;-63